Auburn, Missouri
Current Conditions -  °F | °C
As of 10:54 PM on Saturday 22 Nov 2014 (Local Time) from KSET Reporting Station
Haze Haze  
Wind Chill: 50°   Ceiling: 8000
Heat Index: 50°   Visibility: 5mi
Dew Point: 49°   Wind: 7mph
Humidity: 96%   Direction: 100°E
Pressure: 29.87"   Gusts: NA
Location:  39.1646°N, 90.8436°W
Report Text: KSET 230454Z AUTO 10006KT 5SM BR OVC080 10/09 A2987 RMK AO2 RAB15E38 SLP113 P0001 T01000094
Loading
Personal Weather Stations






























Interactive Weather Map New forecast layout! Learn more

10-Day Weather Forecast

Advertisements
Track Severe Weather on mobile